sensor_id;sensor_type;location;lat;lon;timestamp;P1;durP1;ratioP1;P2;durP2;ratioP2
41057;SDS011;66768;48.884;2.258;2023-07-24T00:01:58;0.90;;;0.90;;
41057;SDS011;66768;48.884;2.258;2023-07-24T00:04:24;0.90;;;0.90;;
41057;SDS011;66768;48.884;2.258;2023-07-24T00:06:51;0.90;;;0.90;;
41057;SDS011;66768;48.884;2.258;2023-07-24T00:09:19;0.90;;;0.90;;
41057;SDS011;66768;48.884;2.258;2023-07-24T00:11:46;0.80;;;0.80;;
41057;SDS011;66768;48.884;2.258;2023-07-24T00:14:14;0.80;;;0.80;;
41057;SDS011;66768;48.884;2.258;2023-07-24T00:16:42;0.82;;;0.82;;
41057;SDS011;66768;48.884;2.258;2023-07-24T00:19:09;0.80;;;0.80;;
41057;SDS011;66768;48.884;2.258;2023-07-24T00:21:36;0.88;;;0.88;;
41057;SDS011;66768;48.884;2.258;2023-07-24T00:24:03;0.80;;;0.80;;
41057;SDS011;66768;48.884;2.258;2023-07-24T00:26:30;0.90;;;0.90;;
41057;SDS011;66768;48.884;2.258;2023-07-24T00:28:58;0.90;;;0.90;;
41057;SDS011;66768;48.884;2.258;2023-07-24T00:31:25;0.85;;;0.85;;
41057;SDS011;66768;48.884;2.258;2023-07-24T00:33:54;0.80;;;0.80;;
41057;SDS011;66768;48.884;2.258;2023-07-24T00:36:20;0.82;;;0.82;;
41057;SDS011;66768;48.884;2.258;2023-07-24T00:38:47;0.90;;;0.90;;
41057;SDS011;66768;48.884;2.258;2023-07-24T00:41:14;0.80;;;0.80;;
41057;SDS011;66768;48.884;2.258;2023-07-24T00:43:41;0.88;;;0.88;;
41057;SDS011;66768;48.884;2.258;2023-07-24T00:46:08;0.90;;;0.90;;
41057;SDS011;66768;48.884;2.258;2023-07-24T00:48:37;0.80;;;0.80;;
41057;SDS011;66768;48.884;2.258;2023-07-24T00:51:06;0.90;;;0.90;;
41057;SDS011;66768;48.884;2.258;2023-07-24T00:53:33;0.80;;;0.80;;
41057;SDS011;66768;48.884;2.258;2023-07-24T00:56:00;0.90;;;0.90;;
41057;SDS011;66768;48.884;2.258;2023-07-24T00:58:27;0.90;;;0.90;;
41057;SDS011;66768;48.884;2.258;2023-07-24T01:00:54;0.80;;;0.80;;
41057;SDS011;66768;48.884;2.258;2023-07-24T01:03:21;0.80;;;0.80;;
41057;SDS011;66768;48.884;2.258;2023-07-24T01:05:52;0.90;;;0.90;;
41057;SDS011;66768;48.884;2.258;2023-07-24T01:08:22;0.88;;;0.88;;
41057;SDS011;66768;48.884;2.258;2023-07-24T01:10:49;0.90;;;0.90;;
41057;SDS011;66768;48.884;2.258;2023-07-24T01:13:20;0.80;;;0.80;;
41057;SDS011;66768;48.884;2.258;2023-07-24T01:15:50;0.90;;;0.90;;
41057;SDS011;66768;48.884;2.258;2023-07-24T01:18:22;0.90;;;0.90;;
41057;SDS011;66768;48.884;2.258;2023-07-24T01:20:51;1.00;;;1.00;;
41057;SDS011;66768;48.884;2.258;2023-07-24T01:23:28;0.90;;;0.90;;
41057;SDS011;66768;48.884;2.258;2023-07-24T01:26:05;1.00;;;1.00;;
41057;SDS011;66768;48.884;2.258;2023-07-24T01:28:34;1.05;;;1.05;;
41057;SDS011;66768;48.884;2.258;2023-07-24T01:31:00;0.90;;;0.90;;
41057;SDS011;66768;48.884;2.258;2023-07-24T01:33:27;0.98;;;0.98;;
41057;SDS011;66768;48.884;2.258;2023-07-24T01:35:57;0.90;;;0.90;;
41057;SDS011;66768;48.884;2.258;2023-07-24T01:38:25;0.90;;;0.90;;
41057;SDS011;66768;48.884;2.258;2023-07-24T01:40:53;1.00;;;1.00;;
41057;SDS011;66768;48.884;2.258;2023-07-24T01:43:22;0.90;;;0.90;;
41057;SDS011;66768;48.884;2.258;2023-07-24T01:45:49;1.00;;;1.00;;
41057;SDS011;66768;48.884;2.258;2023-07-24T01:48:16;1.00;;;1.00;;
41057;SDS011;66768;48.884;2.258;2023-07-24T01:50:42;0.90;;;0.90;;
41057;SDS011;66768;48.884;2.258;2023-07-24T01:53:09;0.90;;;0.90;;
41057;SDS011;66768;48.884;2.258;2023-07-24T01:55:36;1.10;;;1.10;;
41057;SDS011;66768;48.884;2.258;2023-07-24T01:58:03;1.00;;;1.00;;
41057;SDS011;66768;48.884;2.258;2023-07-24T02:00:32;0.90;;;0.90;;
41057;SDS011;66768;48.884;2.258;2023-07-24T02:02:59;0.90;;;0.90;;
41057;SDS011;66768;48.884;2.258;2023-07-24T02:05:26;0.80;;;0.80;;
41057;SDS011;66768;48.884;2.258;2023-07-24T02:07:53;0.90;;;0.90;;
41057;SDS011;66768;48.884;2.258;2023-07-24T02:10:19;0.90;;;0.90;;
41057;SDS011;66768;48.884;2.258;2023-07-24T02:12:46;0.73;;;0.73;;
41057;SDS011;66768;48.884;2.258;2023-07-24T02:15:13;0.80;;;0.80;;
41057;SDS011;66768;48.884;2.258;2023-07-24T02:17:41;0.80;;;0.80;;
41057;SDS011;66768;48.884;2.258;2023-07-24T02:20:08;0.80;;;0.80;;
41057;SDS011;66768;48.884;2.258;2023-07-24T02:22:35;0.80;;;0.80;;
41057;SDS011;66768;48.884;2.258;2023-07-24T02:25:02;0.80;;;0.80;;
41057;SDS011;66768;48.884;2.258;2023-07-24T02:27:30;0.77;;;0.77;;
41057;SDS011;66768;48.884;2.258;2023-07-24T02:29:59;0.80;;;0.80;;
41057;SDS011;66768;48.884;2.258;2023-07-24T02:32:26;0.80;;;0.80;;
41057;SDS011;66768;48.884;2.258;2023-07-24T02:34:55;0.90;;;0.90;;
41057;SDS011;66768;48.884;2.258;2023-07-24T02:37:21;0.75;;;0.75;;
41057;SDS011;66768;48.884;2.258;2023-07-24T02:39:48;0.88;;;0.88;;
41057;SDS011;66768;48.884;2.258;2023-07-24T02:42:16;0.80;;;0.80;;
41057;SDS011;66768;48.884;2.258;2023-07-24T02:44:42;0.90;;;0.90;;
41057;SDS011;66768;48.884;2.258;2023-07-24T02:47:09;0.90;;;0.90;;
41057;SDS011;66768;48.884;2.258;2023-07-24T02:49:36;0.77;;;0.77;;
41057;SDS011;66768;48.884;2.258;2023-07-24T02:52:05;0.80;;;0.80;;
41057;SDS011;66768;48.884;2.258;2023-07-24T02:54:32;0.80;;;0.80;;
41057;SDS011;66768;48.884;2.258;2023-07-24T02:56:59;0.80;;;0.80;;
41057;SDS011;66768;48.884;2.258;2023-07-24T02:59:25;0.70;;;0.70;;
41057;SDS011;66768;48.884;2.258;2023-07-24T03:01:52;0.70;;;0.70;;
41057;SDS011;66768;48.884;2.258;2023-07-24T03:04:19;0.70;;;0.70;;
41057;SDS011;66768;48.884;2.258;2023-07-24T03:06:46;0.60;;;0.60;;
41057;SDS011;66768;48.884;2.258;2023-07-24T03:09:14;0.70;;;0.70;;
41057;SDS011;66768;48.884;2.258;2023-07-24T03:11:41;0.60;;;0.60;;
41057;SDS011;66768;48.884;2.258;2023-07-24T03:14:08;0.60;;;0.60;;
41057;SDS011;66768;48.884;2.258;2023-07-24T03:16:35;0.80;;;0.80;;
41057;SDS011;66768;48.884;2.258;2023-07-24T03:19:02;0.80;;;0.80;;
41057;SDS011;66768;48.884;2.258;2023-07-24T03:21:29;0.90;;;0.90;;
41057;SDS011;66768;48.884;2.258;2023-07-24T03:23:56;0.90;;;0.90;;
41057;SDS011;66768;48.884;2.258;2023-07-24T03:26:24;0.90;;;0.90;;
41057;SDS011;66768;48.884;2.258;2023-07-24T03:28:51;1.00;;;1.00;;
41057;SDS011;66768;48.884;2.258;2023-07-24T03:31:18;1.00;;;1.00;;
41057;SDS011;66768;48.884;2.258;2023-07-24T03:33:45;1.00;;;1.00;;
41057;SDS011;66768;48.884;2.258;2023-07-24T03:36:12;1.20;;;1.20;;
41057;SDS011;66768;48.884;2.258;2023-07-24T03:38:38;1.10;;;1.10;;
41057;SDS011;66768;48.884;2.258;2023-07-24T03:41:05;1.15;;;1.15;;
41057;SDS011;66768;48.884;2.258;2023-07-24T03:43:33;1.23;;;1.23;;
41057;SDS011;66768;48.884;2.258;2023-07-24T03:46:00;1.10;;;1.10;;
41057;SDS011;66768;48.884;2.258;2023-07-24T03:48:27;1.38;;;1.38;;
41057;SDS011;66768;48.884;2.258;2023-07-24T03:50:57;1.33;;;1.33;;
41057;SDS011;66768;48.884;2.258;2023-07-24T03:53:25;1.27;;;1.27;;
41057;SDS011;66768;48.884;2.258;2023-07-24T03:55:52;1.30;;;1.30;;
41057;SDS011;66768;48.884;2.258;2023-07-24T03:58:19;1.30;;;1.30;;
41057;SDS011;66768;48.884;2.258;2023-07-24T04:00:47;1.30;;;1.30;;
41057;SDS011;66768;48.884;2.258;2023-07-24T04:03:15;1.30;;;1.30;;
41057;SDS011;66768;48.884;2.258;2023-07-24T04:05:42;1.40;;;1.40;;
41057;SDS011;66768;48.884;2.258;2023-07-24T04:08:09;1.20;;;1.20;;
41057;SDS011;66768;48.884;2.258;2023-07-24T04:10:36;1.40;;;1.40;;
41057;SDS011;66768;48.884;2.258;2023-07-24T04:13:02;1.30;;;1.30;;
41057;SDS011;66768;48.884;2.258;2023-07-24T04:15:29;1.30;;;1.30;;
41057;SDS011;66768;48.884;2.258;2023-07-24T04:17:58;1.20;;;1.20;;
41057;SDS011;66768;48.884;2.258;2023-07-24T04:20:24;1.20;;;1.20;;
41057;SDS011;66768;48.884;2.258;2023-07-24T04:22:51;1.33;;;1.33;;
41057;SDS011;66768;48.884;2.258;2023-07-24T04:25:18;1.20;;;1.20;;
41057;SDS011;66768;48.884;2.258;2023-07-24T04:27:45;1.20;;;1.20;;
41057;SDS011;66768;48.884;2.258;2023-07-24T04:30:12;1.20;;;1.20;;
41057;SDS011;66768;48.884;2.258;2023-07-24T04:32:39;1.27;;;1.27;;
41057;SDS011;66768;48.884;2.258;2023-07-24T04:35:07;1.20;;;1.20;;
41057;SDS011;66768;48.884;2.258;2023-07-24T04:37:34;1.30;;;1.30;;
41057;SDS011;66768;48.884;2.258;2023-07-24T04:40:01;1.20;;;1.20;;
41057;SDS011;66768;48.884;2.258;2023-07-24T04:42:29;1.35;;;1.35;;
41057;SDS011;66768;48.884;2.258;2023-07-24T04:44:55;1.30;;;1.30;;
41057;SDS011;66768;48.884;2.258;2023-07-24T04:47:22;1.33;;;1.33;;
41057;SDS011;66768;48.884;2.258;2023-07-24T04:49:50;1.50;;;1.50;;
41057;SDS011;66768;48.884;2.258;2023-07-24T04:52:18;1.40;;;1.40;;
41057;SDS011;66768;48.884;2.258;2023-07-24T04:54:45;1.48;;;1.48;;
41057;SDS011;66768;48.884;2.258;2023-07-24T04:57:11;1.42;;;1.42;;
41057;SDS011;66768;48.884;2.258;2023-07-24T04:59:38;1.20;;;1.20;;
41057;SDS011;66768;48.884;2.258;2023-07-24T05:02:05;1.40;;;1.40;;
41057;SDS011;66768;48.884;2.258;2023-07-24T05:04:32;1.20;;;1.20;;
41057;SDS011;66768;48.884;2.258;2023-07-24T05:06:59;1.40;;;1.40;;
41057;SDS011;66768;48.884;2.258;2023-07-24T05:09:27;1.10;;;1.10;;
41057;SDS011;66768;48.884;2.258;2023-07-24T05:11:54;1.27;;;1.27;;
41057;SDS011;66768;48.884;2.258;2023-07-24T05:14:21;1.10;;;1.10;;
41057;SDS011;66768;48.884;2.258;2023-07-24T05:16:48;1.10;;;1.10;;
41057;SDS011;66768;48.884;2.258;2023-07-24T05:19:15;1.30;;;1.30;;
41057;SDS011;66768;48.884;2.258;2023-07-24T05:21:42;1.10;;;1.10;;
41057;SDS011;66768;48.884;2.258;2023-07-24T05:24:08;1.20;;;1.20;;
41057;SDS011;66768;48.884;2.258;2023-07-24T05:26:37;1.20;;;1.20;;
41057;SDS011;66768;48.884;2.258;2023-07-24T05:29:03;1.10;;;1.10;;
41057;SDS011;66768;48.884;2.258;2023-07-24T05:31:30;1.00;;;1.00;;
41057;SDS011;66768;48.884;2.258;2023-07-24T05:33:57;1.17;;;1.17;;
41057;SDS011;66768;48.884;2.258;2023-07-24T05:36:24;1.00;;;1.00;;
41057;SDS011;66768;48.884;2.258;2023-07-24T05:38:51;1.10;;;1.10;;
41057;SDS011;66768;48.884;2.258;2023-07-24T05:41:18;1.00;;;1.00;;
41057;SDS011;66768;48.884;2.258;2023-07-24T05:43:47;1.00;;;1.00;;
41057;SDS011;66768;48.884;2.258;2023-07-24T05:46:13;0.80;;;0.80;;
41057;SDS011;66768;48.884;2.258;2023-07-24T05:48:40;0.90;;;0.90;;
41057;SDS011;66768;48.884;2.258;2023-07-24T05:51:07;0.80;;;0.80;;
41057;SDS011;66768;48.884;2.258;2023-07-24T05:53:34;0.82;;;0.82;;
41057;SDS011;66768;48.884;2.258;2023-07-24T05:56:01;0.70;;;0.70;;
41057;SDS011;66768;48.884;2.258;2023-07-24T05:58:29;0.80;;;0.80;;
41057;SDS011;66768;48.884;2.258;2023-07-24T06:00:57;0.80;;;0.80;;
41057;SDS011;66768;48.884;2.258;2023-07-24T06:03:24;0.80;;;0.80;;
41057;SDS011;66768;48.884;2.258;2023-07-24T06:05:51;0.90;;;0.90;;
41057;SDS011;66768;48.884;2.258;2023-07-24T06:08:18;0.80;;;0.80;;
41057;SDS011;66768;48.884;2.258;2023-07-24T06:10:46;0.90;;;0.90;;
41057;SDS011;66768;48.884;2.258;2023-07-24T06:13:14;0.90;;;0.90;;
41057;SDS011;66768;48.884;2.258;2023-07-24T06:15:41;0.90;;;0.90;;
41057;SDS011;66768;48.884;2.258;2023-07-24T06:18:09;0.95;;;0.95;;
41057;SDS011;66768;48.884;2.258;2023-07-24T06:20:36;1.23;;;1.23;;
41057;SDS011;66768;48.884;2.258;2023-07-24T06:23:03;1.65;;;1.65;;
41057;SDS011;66768;48.884;2.258;2023-07-24T06:25:30;1.40;;;1.40;;
41057;SDS011;66768;48.884;2.258;2023-07-24T06:27:57;1.13;;;1.13;;
41057;SDS011;66768;48.884;2.258;2023-07-24T06:30:24;1.00;;;1.00;;
41057;SDS011;66768;48.884;2.258;2023-07-24T06:32:51;1.10;;;1.10;;
41057;SDS011;66768;48.884;2.258;2023-07-24T06:35:19;1.25;;;1.25;;
41057;SDS011;66768;48.884;2.258;2023-07-24T06:37:46;1.02;;;1.02;;
41057;SDS011;66768;48.884;2.258;2023-07-24T06:40:13;1.00;;;1.00;;
41057;SDS011;66768;48.884;2.258;2023-07-24T06:42:40;1.02;;;1.02;;
41057;SDS011;66768;48.884;2.258;2023-07-24T06:45:07;1.20;;;1.20;;
41057;SDS011;66768;48.884;2.258;2023-07-24T06:47:34;0.90;;;0.90;;
41057;SDS011;66768;48.884;2.258;2023-07-24T06:50:02;0.98;;;0.98;;
41057;SDS011;66768;48.884;2.258;2023-07-24T06:52:31;1.00;;;1.00;;
41057;SDS011;66768;48.884;2.258;2023-07-24T06:54:58;1.00;;;1.00;;
41057;SDS011;66768;48.884;2.258;2023-07-24T06:57:25;1.10;;;1.10;;
41057;SDS011;66768;48.884;2.258;2023-07-24T06:59:52;1.02;;;1.02;;
41057;SDS011;66768;48.884;2.258;2023-07-24T07:02:18;1.10;;;1.10;;
41057;SDS011;66768;48.884;2.258;2023-07-24T07:04:45;1.10;;;1.10;;
41057;SDS011;66768;48.884;2.258;2023-07-24T07:07:12;1.10;;;1.10;;
41057;SDS011;66768;48.884;2.258;2023-07-24T07:09:40;1.00;;;1.00;;
41057;SDS011;66768;48.884;2.258;2023-07-24T07:12:07;1.10;;;1.10;;
41057;SDS011;66768;48.884;2.258;2023-07-24T07:14:34;1.40;;;1.40;;
41057;SDS011;66768;48.884;2.258;2023-07-24T07:17:01;1.42;;;1.42;;
41057;SDS011;66768;48.884;2.258;2023-07-24T07:19:28;1.63;;;1.63;;
41057;SDS011;66768;48.884;2.258;2023-07-24T07:21:55;1.55;;;1.55;;
41057;SDS011;66768;48.884;2.258;2023-07-24T07:24:22;1.38;;;1.38;;
41057;SDS011;66768;48.884;2.258;2023-07-24T07:26:50;1.20;;;1.20;;
41057;SDS011;66768;48.884;2.258;2023-07-24T07:29:17;1.02;;;1.02;;
41057;SDS011;66768;48.884;2.258;2023-07-24T07:31:44;1.05;;;1.05;;
41057;SDS011;66768;48.884;2.258;2023-07-24T07:34:10;1.00;;;1.00;;
41057;SDS011;66768;48.884;2.258;2023-07-24T07:36:37;1.00;;;1.00;;
41057;SDS011;66768;48.884;2.258;2023-07-24T07:39:04;0.98;;;0.98;;
41057;SDS011;66768;48.884;2.258;2023-07-24T07:41:31;0.88;;;0.88;;
41057;SDS011;66768;48.884;2.258;2023-07-24T07:43:59;0.90;;;0.90;;
41057;SDS011;66768;48.884;2.258;2023-07-24T07:46:26;1.00;;;1.00;;
41057;SDS011;66768;48.884;2.258;2023-07-24T07:48:53;1.00;;;1.00;;
41057;SDS011;66768;48.884;2.258;2023-07-24T07:51:20;0.98;;;0.98;;
41057;SDS011;66768;48.884;2.258;2023-07-24T07:53:49;1.00;;;1.00;;
41057;SDS011;66768;48.884;2.258;2023-07-24T07:56:16;1.02;;;1.02;;
41057;SDS011;66768;48.884;2.258;2023-07-24T07:58:43;1.10;;;1.10;;
41057;SDS011;66768;48.884;2.258;2023-07-24T08:01:11;1.00;;;1.00;;
41057;SDS011;66768;48.884;2.258;2023-07-24T08:03:38;1.05;;;1.05;;
41057;SDS011;66768;48.884;2.258;2023-07-24T08:06:05;1.00;;;1.00;;
41057;SDS011;66768;48.884;2.258;2023-07-24T08:08:32;1.10;;;1.10;;
41057;SDS011;66768;48.884;2.258;2023-07-24T08:11:03;1.20;;;1.20;;
41057;SDS011;66768;48.884;2.258;2023-07-24T08:13:30;1.17;;;1.17;;
41057;SDS011;66768;48.884;2.258;2023-07-24T08:15:57;1.23;;;1.23;;
41057;SDS011;66768;48.884;2.258;2023-07-24T08:18:25;1.33;;;1.33;;
41057;SDS011;66768;48.884;2.258;2023-07-24T08:20:52;1.35;;;1.35;;
41057;SDS011;66768;48.884;2.258;2023-07-24T08:23:19;1.33;;;1.33;;
41057;SDS011;66768;48.884;2.258;2023-07-24T08:25:52;1.73;;;1.73;;
41057;SDS011;66768;48.884;2.258;2023-07-24T08:28:19;1.40;;;1.40;;
41057;SDS011;66768;48.884;2.258;2023-07-24T08:30:50;1.30;;;1.30;;
41057;SDS011;66768;48.884;2.258;2023-07-24T08:33:22;1.42;;;1.42;;
41057;SDS011;66768;48.884;2.258;2023-07-24T08:35:58;1.00;;;1.00;;
41057;SDS011;66768;48.884;2.258;2023-07-24T08:38:26;1.08;;;1.08;;
41057;SDS011;66768;48.884;2.258;2023-07-24T08:40:59;1.15;;;1.15;;
41057;SDS011;66768;48.884;2.258;2023-07-24T08:43:27;0.90;;;0.90;;
41057;SDS011;66768;48.884;2.258;2023-07-24T08:45:55;0.95;;;0.95;;
41057;SDS011;66768;48.884;2.258;2023-07-24T08:48:24;0.90;;;0.90;;
41057;SDS011;66768;48.884;2.258;2023-07-24T08:50:52;0.70;;;0.70;;
41057;SDS011;66768;48.884;2.258;2023-07-24T08:53:21;0.70;;;0.70;;
41057;SDS011;66768;48.884;2.258;2023-07-24T08:55:49;0.70;;;0.70;;
41057;SDS011;66768;48.884;2.258;2023-07-24T08:58:19;0.70;;;0.70;;
41057;SDS011;66768;48.884;2.258;2023-07-24T09:00:46;0.70;;;0.70;;
41057;SDS011;66768;48.884;2.258;2023-07-24T09:03:13;0.63;;;0.63;;
41057;SDS011;66768;48.884;2.258;2023-07-24T09:05:40;0.70;;;0.70;;
41057;SDS011;66768;48.884;2.258;2023-07-24T09:08:06;1.00;;;1.00;;
41057;SDS011;66768;48.884;2.258;2023-07-24T09:10:35;1.17;;;1.17;;
41057;SDS011;66768;48.884;2.258;2023-07-24T09:13:02;1.10;;;1.10;;
41057;SDS011;66768;48.884;2.258;2023-07-24T09:15:29;1.35;;;1.35;;
41057;SDS011;66768;48.884;2.258;2023-07-24T09:18:06;1.75;;;1.75;;
41057;SDS011;66768;48.884;2.258;2023-07-24T09:20:37;1.95;;;1.95;;
41057;SDS011;66768;48.884;2.258;2023-07-24T09:23:06;3.00;;;2.90;;
41057;SDS011;66768;48.884;2.258;2023-07-24T09:25:35;2.25;;;2.15;;
41057;SDS011;66768;48.884;2.258;2023-07-24T09:28:08;1.48;;;1.48;;
41057;SDS011;66768;48.884;2.258;2023-07-24T09:30:36;1.48;;;1.48;;
41057;SDS011;66768;48.884;2.258;2023-07-24T09:33:03;1.15;;;1.15;;
41057;SDS011;66768;48.884;2.258;2023-07-24T09:35:30;1.05;;;1.05;;
41057;SDS011;66768;48.884;2.258;2023-07-24T09:38:04;1.25;;;1.25;;
41057;SDS011;66768;48.884;2.258;2023-07-24T09:40:40;1.00;;;1.00;;
41057;SDS011;66768;48.884;2.258;2023-07-24T09:43:15;1.25;;;1.25;;
41057;SDS011;66768;48.884;2.258;2023-07-24T09:45:46;1.35;;;1.35;;
41057;SDS011;66768;48.884;2.258;2023-07-24T09:48:15;1.30;;;1.30;;
41057;SDS011;66768;48.884;2.258;2023-07-24T09:50:44;1.30;;;1.30;;
41057;SDS011;66768;48.884;2.258;2023-07-24T09:53:12;1.25;;;1.25;;
41057;SDS011;66768;48.884;2.258;2023-07-24T09:55:46;1.40;;;1.40;;
41057;SDS011;66768;48.884;2.258;2023-07-24T09:58:18;1.33;;;1.33;;
41057;SDS011;66768;48.884;2.258;2023-07-24T10:00:46;1.40;;;1.40;;
41057;SDS011;66768;48.884;2.258;2023-07-24T10:03:15;2.55;;;2.45;;
41057;SDS011;66768;48.884;2.258;2023-07-24T10:05:43;2.60;;;2.50;;
41057;SDS011;66768;48.884;2.258;2023-07-24T10:08:10;2.20;;;2.10;;
41057;SDS011;66768;48.884;2.258;2023-07-24T10:10:38;2.20;;;2.10;;
41057;SDS011;66768;48.884;2.258;2023-07-24T10:13:06;1.60;;;1.60;;
41057;SDS011;66768;48.884;2.258;2023-07-24T10:15:36;1.52;;;1.52;;
41057;SDS011;66768;48.884;2.258;2023-07-24T10:18:04;1.20;;;1.20;;
41057;SDS011;66768;48.884;2.258;2023-07-24T10:20:33;1.02;;;1.02;;
41057;SDS011;66768;48.884;2.258;2023-07-24T10:23:01;1.10;;;1.10;;
41057;SDS011;66768;48.884;2.258;2023-07-24T10:25:43;1.08;;;1.08;;
41057;SDS011;66768;48.884;2.258;2023-07-24T10:28:13;1.10;;;1.10;;
41057;SDS011;66768;48.884;2.258;2023-07-24T10:30:41;1.30;;;1.30;;
41057;SDS011;66768;48.884;2.258;2023-07-24T10:33:09;1.60;;;1.60;;
41057;SDS011;66768;48.884;2.258;2023-07-24T10:35:41;1.20;;;1.20;;
41057;SDS011;66768;48.884;2.258;2023-07-24T10:38:11;1.10;;;1.10;;
41057;SDS011;66768;48.884;2.258;2023-07-24T10:40:39;1.10;;;1.10;;
41057;SDS011;66768;48.884;2.258;2023-07-24T10:43:08;1.10;;;1.10;;
41057;SDS011;66768;48.884;2.258;2023-07-24T10:45:46;1.30;;;1.30;;
41057;SDS011;66768;48.884;2.258;2023-07-24T10:48:14;1.13;;;1.13;;
41057;SDS011;66768;48.884;2.258;2023-07-24T10:50:42;0.90;;;0.90;;
41057;SDS011;66768;48.884;2.258;2023-07-24T10:53:10;1.23;;;1.23;;
41057;SDS011;66768;48.884;2.258;2023-07-24T10:55:41;1.20;;;1.20;;
41057;SDS011;66768;48.884;2.258;2023-07-24T10:58:09;1.73;;;1.73;;
41057;SDS011;66768;48.884;2.258;2023-07-24T11:00:38;2.17;;;2.08;;
41057;SDS011;66768;48.884;2.258;2023-07-24T11:03:06;2.45;;;2.35;;
41057;SDS011;66768;48.884;2.258;2023-07-24T11:05:35;2.40;;;2.30;;
41057;SDS011;66768;48.884;2.258;2023-07-24T11:08:08;2.38;;;2.28;;
41057;SDS011;66768;48.884;2.258;2023-07-24T11:10:39;2.75;;;2.65;;
41057;SDS011;66768;48.884;2.258;2023-07-24T11:13:11;2.63;;;2.53;;
41057;SDS011;66768;48.884;2.258;2023-07-24T11:15:38;2.05;;;2.03;;
41057;SDS011;66768;48.884;2.258;2023-07-24T11:18:06;2.50;;;2.40;;
41057;SDS011;66768;48.884;2.258;2023-07-24T11:20:36;2.47;;;2.38;;
41057;SDS011;66768;48.884;2.258;2023-07-24T11:23:05;2.50;;;2.40;;
41057;SDS011;66768;48.884;2.258;2023-07-24T11:25:31;2.30;;;2.20;;
41057;SDS011;66768;48.884;2.258;2023-07-24T11:27:59;2.30;;;2.20;;
41057;SDS011;66768;48.884;2.258;2023-07-24T11:30:27;1.70;;;1.70;;
41057;SDS011;66768;48.884;2.258;2023-07-24T11:32:54;1.40;;;1.40;;
41057;SDS011;66768;48.884;2.258;2023-07-24T11:35:25;1.90;;;1.90;;
41057;SDS011;66768;48.884;2.258;2023-07-24T11:37:52;1.80;;;1.80;;
41057;SDS011;66768;48.884;2.258;2023-07-24T11:40:19;1.90;;;1.90;;
41057;SDS011;66768;48.884;2.258;2023-07-24T11:42:47;1.90;;;1.90;;
41057;SDS011;66768;48.884;2.258;2023-07-24T11:45:14;1.90;;;1.90;;
41057;SDS011;66768;48.884;2.258;2023-07-24T11:47:42;1.48;;;1.48;;
41057;SDS011;66768;48.884;2.258;2023-07-24T11:50:13;1.30;;;1.30;;
41057;SDS011;66768;48.884;2.258;2023-07-24T11:52:46;1.20;;;1.20;;
41057;SDS011;66768;48.884;2.258;2023-07-24T11:55:15;1.20;;;1.20;;
41057;SDS011;66768;48.884;2.258;2023-07-24T11:57:54;0.80;;;0.80;;
41057;SDS011;66768;48.884;2.258;2023-07-24T12:00:22;0.80;;;0.80;;
41057;SDS011;66768;48.884;2.258;2023-07-24T12:02:49;0.80;;;0.80;;
41057;SDS011;66768;48.884;2.258;2023-07-24T12:05:16;1.00;;;1.00;;
41057;SDS011;66768;48.884;2.258;2023-07-24T12:07:43;0.88;;;0.88;;
41057;SDS011;66768;48.884;2.258;2023-07-24T12:10:12;0.70;;;0.70;;
41057;SDS011;66768;48.884;2.258;2023-07-24T12:12:42;0.77;;;0.77;;
41057;SDS011;66768;48.884;2.258;2023-07-24T12:15:10;0.60;;;0.60;;
41057;SDS011;66768;48.884;2.258;2023-07-24T12:17:37;0.60;;;0.60;;
41057;SDS011;66768;48.884;2.258;2023-07-24T12:20:05;0.60;;;0.60;;
41057;SDS011;66768;48.884;2.258;2023-07-24T12:22:34;0.60;;;0.60;;
41057;SDS011;66768;48.884;2.258;2023-07-24T12:25:03;0.70;;;0.70;;
41057;SDS011;66768;48.884;2.258;2023-07-24T12:27:31;0.80;;;0.80;;
41057;SDS011;66768;48.884;2.258;2023-07-24T12:29:58;0.68;;;0.68;;
41057;SDS011;66768;48.884;2.258;2023-07-24T12:32:25;0.70;;;0.70;;
41057;SDS011;66768;48.884;2.258;2023-07-24T12:34:53;0.80;;;0.80;;
41057;SDS011;66768;48.884;2.258;2023-07-24T12:37:20;1.00;;;1.00;;
41057;SDS011;66768;48.884;2.258;2023-07-24T12:39:47;0.80;;;0.80;;
41057;SDS011;66768;48.884;2.258;2023-07-24T12:42:16;0.80;;;0.80;;
41057;SDS011;66768;48.884;2.258;2023-07-24T12:44:43;0.65;;;0.65;;
41057;SDS011;66768;48.884;2.258;2023-07-24T12:47:10;0.70;;;0.70;;
41057;SDS011;66768;48.884;2.258;2023-07-24T12:49:37;0.65;;;0.65;;
41057;SDS011;66768;48.884;2.258;2023-07-24T12:52:05;0.70;;;0.70;;
41057;SDS011;66768;48.884;2.258;2023-07-24T12:54:32;1.08;;;1.08;;
41057;SDS011;66768;48.884;2.258;2023-07-24T12:56:59;2.13;;;2.05;;
41057;SDS011;66768;48.884;2.258;2023-07-24T12:59:28;0.95;;;0.95;;
41057;SDS011;66768;48.884;2.258;2023-07-24T13:01:55;0.80;;;0.80;;
41057;SDS011;66768;48.884;2.258;2023-07-24T13:04:22;1.10;;;1.10;;
41057;SDS011;66768;48.884;2.258;2023-07-24T13:06:49;0.98;;;0.98;;
41057;SDS011;66768;48.884;2.258;2023-07-24T13:09:17;0.90;;;0.90;;
41057;SDS011;66768;48.884;2.258;2023-07-24T13:11:44;0.70;;;0.70;;
41057;SDS011;66768;48.884;2.258;2023-07-24T13:14:13;0.80;;;0.80;;
41057;SDS011;66768;48.884;2.258;2023-07-24T13:16:42;0.70;;;0.70;;
41057;SDS011;66768;48.884;2.258;2023-07-24T13:19:09;0.70;;;0.70;;
41057;SDS011;66768;48.884;2.258;2023-07-24T13:21:35;0.60;;;0.60;;
41057;SDS011;66768;48.884;2.258;2023-07-24T13:24:02;0.60;;;0.60;;
41057;SDS011;66768;48.884;2.258;2023-07-24T13:26:30;0.60;;;0.60;;
41057;SDS011;66768;48.884;2.258;2023-07-24T13:28:57;0.60;;;0.60;;
41057;SDS011;66768;48.884;2.258;2023-07-24T13:31:24;0.60;;;0.60;;
41057;SDS011;66768;48.884;2.258;2023-07-24T13:33:54;0.60;;;0.60;;
41057;SDS011;66768;48.884;2.258;2023-07-24T13:36:21;0.70;;;0.70;;
41057;SDS011;66768;48.884;2.258;2023-07-24T13:38:48;0.60;;;0.60;;
41057;SDS011;66768;48.884;2.258;2023-07-24T13:41:15;0.70;;;0.70;;
41057;SDS011;66768;48.884;2.258;2023-07-24T13:43:42;0.70;;;0.70;;
41057;SDS011;66768;48.884;2.258;2023-07-24T13:46:09;0.60;;;0.60;;
41057;SDS011;66768;48.884;2.258;2023-07-24T13:48:36;0.70;;;0.70;;
41057;SDS011;66768;48.884;2.258;2023-07-24T13:51:04;0.60;;;0.60;;
41057;SDS011;66768;48.884;2.258;2023-07-24T13:53:31;0.60;;;0.60;;
41057;SDS011;66768;48.884;2.258;2023-07-24T13:55:58;0.60;;;0.60;;
41057;SDS011;66768;48.884;2.258;2023-07-24T13:58:25;0.63;;;0.63;;
41057;SDS011;66768;48.884;2.258;2023-07-24T14:00:51;0.60;;;0.60;;
41057;SDS011;66768;48.884;2.258;2023-07-24T14:03:18;0.70;;;0.70;;
41057;SDS011;66768;48.884;2.258;2023-07-24T14:05:44;0.60;;;0.60;;
41057;SDS011;66768;48.884;2.258;2023-07-24T14:08:12;0.70;;;0.70;;
41057;SDS011;66768;48.884;2.258;2023-07-24T14:10:39;0.70;;;0.70;;
41057;SDS011;66768;48.884;2.258;2023-07-24T14:13:06;0.60;;;0.60;;
41057;SDS011;66768;48.884;2.258;2023-07-24T14:15:33;0.60;;;0.60;;
41057;SDS011;66768;48.884;2.258;2023-07-24T14:18:00;0.80;;;0.80;;
41057;SDS011;66768;48.884;2.258;2023-07-24T14:20:27;0.90;;;0.90;;
41057;SDS011;66768;48.884;2.258;2023-07-24T14:22:53;0.80;;;0.80;;
41057;SDS011;66768;48.884;2.258;2023-07-24T14:25:22;0.90;;;0.90;;
41057;SDS011;66768;48.884;2.258;2023-07-24T14:27:49;0.90;;;0.90;;
41057;SDS011;66768;48.884;2.258;2023-07-24T14:30:16;0.90;;;0.90;;
41057;SDS011;66768;48.884;2.258;2023-07-24T14:32:42;1.10;;;1.10;;
41057;SDS011;66768;48.884;2.258;2023-07-24T14:35:09;0.80;;;0.80;;
41057;SDS011;66768;48.884;2.258;2023-07-24T14:37:36;0.80;;;0.80;;
41057;SDS011;66768;48.884;2.258;2023-07-24T14:40:03;0.70;;;0.70;;
41057;SDS011;66768;48.884;2.258;2023-07-24T14:42:33;0.80;;;0.80;;
41057;SDS011;66768;48.884;2.258;2023-07-24T14:44:59;0.88;;;0.88;;
41057;SDS011;66768;48.884;2.258;2023-07-24T14:47:27;1.08;;;1.08;;
41057;SDS011;66768;48.884;2.258;2023-07-24T14:49:54;1.05;;;1.05;;
41057;SDS011;66768;48.884;2.258;2023-07-24T14:52:23;0.82;;;0.82;;